Time;durP1;ratioP1;P1;durP2;ratioP2;P2;SDS_P1;SDS_P2;PMS_P1;PMS_P2;Temp;Humidity;BMP_temperature;BMP_pressure;BME280_temperature;BME280_humidity;BME280_pressure;Samples;Min_cycle;Max_cycle;Signal;HPM_P1;HPM_P2
2021/08/18 00:00:41;;;;;;;36.53;21.60;;;;;;;;;;4975179;28;20459;-46
2021/08/18 00:03:08;;;;;;;35.60;21.77;;;;;;;;;;4975222;28;20435;-45
2021/08/18 00:05:34;;;;;;;39.60;21.50;;;;;;;;;;4975340;28;20919;-46
2021/08/18 00:08:01;;;;;;;36.50;22.07;;;;;;;;;;4975276;28;20436;-46
2021/08/18 00:10:28;;;;;;;39.73;19.73;;;;;;;;;;4975140;28;20509;-46
2021/08/18 00:12:54;;;;;;;35.07;21.80;;;;;;;;;;4975034;28;20432;-46
2021/08/18 00:15:21;;;;;;;34.13;19.90;;;;;;;;;;4975176;28;20431;-46
2021/08/18 00:17:47;;;;;;;41.10;23.70;;;;;;;;;;4975045;28;20488;-45
2021/08/18 00:20:13;;;;;;;35.67;21.77;;;;;;;;;;4974734;28;21059;-46
2021/08/18 00:22:39;;;;;;;37.13;21.60;;;;;;;;;;4975010;28;20487;-45
2021/08/18 00:25:05;;;;;;;39.50;22.67;;;;;;;;;;4974924;28;20551;-46
2021/08/18 00:27:31;;;;;;;38.47;23.20;;;;;;;;;;4974892;28;20896;-46
2021/08/18 00:29:57;;;;;;;32.77;20.87;;;;;;;;;;4974627;28;20441;-46
2021/08/18 00:32:24;;;;;;;34.67;20.23;;;;;;;;;;4974831;28;20495;-45
2021/08/18 00:34:50;;;;;;;31.13;18.17;;;;;;;;;;4974871;28;20889;-46
2021/08/18 00:37:16;;;;;;;31.83;19.43;;;;;;;;;;4974766;28;20415;-46
2021/08/18 00:39:42;;;;;;;33.77;21.50;;;;;;;;;;4974365;28;20912;-46
2021/08/18 00:42:08;;;;;;;34.10;18.83;;;;;;;;;;4973912;28;20418;-46
2021/08/18 00:44:35;;;;;;;29.33;19.10;;;;;;;;;;4974519;28;20453;-46
2021/08/18 00:47:01;;;;;;;32.80;19.80;;;;;;;;;;4974596;28;20400;-46
2021/08/18 00:49:27;;;;;;;29.37;17.67;;;;;;;;;;4974282;28;20903;-46
2021/08/18 00:51:57;;;;;;;26.50;18.30;;;;;;;;;;4974829;28;20408;-46
2021/08/18 00:54:23;;;;;;;30.90;19.13;;;;;;;;;;4974663;28;20410;-46
2021/08/18 00:56:49;;;;;;;29.63;17.50;;;;;;;;;;4974666;28;20739;-46
2021/08/18 00:59:16;;;;;;;29.67;17.03;;;;;;;;;;4974236;28;20458;-46
2021/08/18 01:01:42;;;;;;;26.20;17.17;;;;;;;;;;4973795;28;20417;-46
2021/08/18 01:04:09;;;;;;;32.33;18.00;;;;;;;;;;4973894;28;20562;-46
2021/08/18 01:06:39;;;;;;;28.67;16.33;;;;;;;;;;4974236;28;20767;-46
2021/08/18 01:09:06;;;;;;;26.50;17.87;;;;;;;;;;4974200;28;20432;-46
2021/08/18 01:11:34;;;;;;;31.43;16.17;;;;;;;;;;4974160;28;20431;-46
2021/08/18 01:14:00;;;;;;;30.17;16.30;;;;;;;;;;4974037;28;20409;-47
2021/08/18 01:16:26;;;;;;;24.87;14.93;;;;;;;;;;4974121;28;20454;-46
2021/08/18 01:18:52;;;;;;;28.90;16.70;;;;;;;;;;4973968;28;20434;-46
2021/08/18 01:21:18;;;;;;;27.37;16.70;;;;;;;;;;4974000;28;20417;-46
2021/08/18 01:23:44;;;;;;;25.90;15.60;;;;;;;;;;4974000;28;20594;-46
2021/08/18 01:26:10;;;;;;;24.47;16.90;;;;;;;;;;4973913;28;20461;-46
2021/08/18 01:28:36;;;;;;;27.80;17.70;;;;;;;;;;4973423;28;20920;-46
2021/08/18 01:31:02;;;;;;;23.03;15.67;;;;;;;;;;4973782;28;20420;-46
2021/08/18 01:33:28;;;;;;;26.73;16.60;;;;;;;;;;4973745;28;20415;-46
2021/08/18 01:35:54;;;;;;;23.57;14.00;;;;;;;;;;4973933;28;20417;-46
2021/08/18 01:38:21;;;;;;;25.30;14.77;;;;;;;;;;4973391;28;20973;-46
2021/08/18 01:40:51;;;;;;;25.63;16.40;;;;;;;;;;4973681;28;20592;-46
2021/08/18 01:43:16;;;;;;;24.83;14.40;;;;;;;;;;4973416;28;20520;-46
2021/08/18 01:45:44;;;;;;;24.53;15.13;;;;;;;;;;4973500;28;20487;-46
2021/08/18 01:48:14;;;;;;;23.17;15.83;;;;;;;;;;4973435;28;20488;-46
2021/08/18 01:50:41;;;;;;;24.43;15.67;;;;;;;;;;4973249;28;20478;-46
2021/08/18 01:53:07;;;;;;;24.73;15.90;;;;;;;;;;4973294;28;20412;-46
2021/08/18 01:55:33;;;;;;;27.87;17.27;;;;;;;;;;4973323;28;20659;-46
2021/08/18 01:57:59;;;;;;;27.00;15.70;;;;;;;;;;4973244;28;20908;-46
2021/08/18 02:00:27;;;;;;;23.47;15.30;;;;;;;;;;4972966;28;20424;-46
2021/08/18 02:02:53;;;;;;;24.63;15.90;;;;;;;;;;4973200;28;20491;-46
2021/08/18 02:05:19;;;;;;;31.63;16.70;;;;;;;;;;4973337;28;20559;-45
2021/08/18 02:07:45;;;;;;;28.13;16.50;;;;;;;;;;4973132;28;20774;-46
2021/08/18 02:10:13;;;;;;;31.33;17.20;;;;;;;;;;4972724;28;20434;-46
2021/08/18 02:12:39;;;;;;;28.20;18.73;;;;;;;;;;4972852;28;20460;-46
2021/08/18 02:15:25;;;;;;;31.40;19.43;;;;;;;;;;4972938;28;20435;-45
2021/08/18 02:17:51;;;;;;;29.50;19.53;;;;;;;;;;4973108;28;20835;-46
2021/08/18 02:20:20;;;;;;;32.57;18.70;;;;;;;;;;4972504;28;20515;-45
2021/08/18 02:22:46;;;;;;;33.40;19.93;;;;;;;;;;4972809;28;20382;-45
2021/08/18 02:25:12;;;;;;;36.33;20.30;;;;;;;;;;4972602;28;20462;-46
2021/08/18 02:27:38;;;;;;;35.23;22.07;;;;;;;;;;4972715;28;20916;-46
2021/08/18 02:30:05;;;;;;;32.33;20.13;;;;;;;;;;4972337;28;20912;-47
2021/08/18 02:32:31;;;;;;;33.13;19.50;;;;;;;;;;4972749;28;20931;-46
2021/08/18 02:34:57;;;;;;;34.20;20.80;;;;;;;;;;4972553;28;20907;-46
2021/08/18 02:37:23;;;;;;;30.17;19.47;;;;;;;;;;4972557;28;20408;-46
2021/08/18 02:39:49;;;;;;;30.30;19.33;;;;;;;;;;4972228;28;20431;-46
2021/08/18 02:42:15;;;;;;;31.73;19.80;;;;;;;;;;4972534;28;20830;-46
2021/08/18 02:44:42;;;;;;;35.87;19.67;;;;;;;;;;4972521;28;20531;-45
2021/08/18 02:47:08;;;;;;;35.83;20.60;;;;;;;;;;4972585;28;20507;-47
2021/08/18 02:49:34;;;;;;;39.17;19.57;;;;;;;;;;4971986;28;20932;-46
2021/08/18 02:52:00;;;;;;;34.37;20.30;;;;;;;;;;4972292;28;20412;-46
2021/08/18 02:54:26;;;;;;;35.17;20.30;;;;;;;;;;4972284;28;20420;-46
2021/08/18 02:56:52;;;;;;;33.07;19.60;;;;;;;;;;4972272;28;20384;-46
2021/08/18 02:59:18;;;;;;;34.90;19.00;;;;;;;;;;4971961;28;20842;-46
2021/08/18 03:01:44;;;;;;;31.57;18.70;;;;;;;;;;4954905;28;20421;-46
2021/08/18 03:04:10;;;;;;;28.43;17.70;;;;;;;;;;4971982;28;20831;-46
2021/08/18 03:06:36;;;;;;;33.70;18.27;;;;;;;;;;4971731;28;20407;-47
2021/08/18 03:09:02;;;;;;;30.90;18.17;;;;;;;;;;4971986;28;20913;-47
2021/08/18 03:11:28;;;;;;;40.53;19.37;;;;;;;;;;4972099;28;20438;-46
2021/08/18 03:13:54;;;;;;;31.17;17.70;;;;;;;;;;4972392;28;20891;-46
2021/08/18 03:16:20;;;;;;;34.73;19.37;;;;;;;;;;4972328;28;20779;-46
2021/08/18 03:18:46;;;;;;;31.23;17.80;;;;;;;;;;4971935;28;20472;-47
2021/08/18 03:21:12;;;;;;;28.93;18.73;;;;;;;;;;4971911;28;20415;-46
2021/08/18 03:23:38;;;;;;;37.57;19.10;;;;;;;;;;4971960;28;20452;-46
2021/08/18 03:26:04;;;;;;;30.60;17.80;;;;;;;;;;4971856;28;20407;-45
2021/08/18 03:28:30;;;;;;;36.93;19.53;;;;;;;;;;4971788;28;20415;-46
2021/08/18 03:30:56;;;;;;;32.70;17.73;;;;;;;;;;4972073;28;20393;-46
2021/08/18 03:33:22;;;;;;;30.93;18.17;;;;;;;;;;4971941;28;20412;-46
2021/08/18 03:35:48;;;;;;;25.07;15.97;;;;;;;;;;4971757;28;20421;-45
2021/08/18 03:38:14;;;;;;;32.70;16.70;;;;;;;;;;4971932;28;20499;-47
2021/08/18 03:40:40;;;;;;;36.17;17.07;;;;;;;;;;4971794;28;20391;-46
2021/08/18 03:43:06;;;;;;;34.17;18.13;;;;;;;;;;4971766;28;20778;-46
2021/08/18 03:45:32;;;;;;;26.77;15.20;;;;;;;;;;4971748;28;20404;-45
2021/08/18 03:47:58;;;;;;;30.23;18.40;;;;;;;;;;4971785;28;20507;-46
2021/08/18 03:50:24;;;;;;;24.97;15.53;;;;;;;;;;4971273;28;20474;-46
2021/08/18 03:52:50;;;;;;;29.10;16.20;;;;;;;;;;4971812;28;20466;-46
2021/08/18 03:55:16;;;;;;;29.93;17.80;;;;;;;;;;4971806;28;20419;-47
2021/08/18 03:57:42;;;;;;;30.63;18.17;;;;;;;;;;4971711;28;20415;-46
2021/08/18 04:00:09;;;;;;;34.30;17.90;;;;;;;;;;4971338;28;20437;-46
2021/08/18 04:02:38;;;;;;;27.63;16.90;;;;;;;;;;4971603;28;20407;-46
2021/08/18 04:05:04;;;;;;;29.97;16.90;;;;;;;;;;4971411;28;20453;-46
2021/08/18 04:07:30;;;;;;;28.80;16.57;;;;;;;;;;4971652;28;20458;-46
2021/08/18 04:09:56;;;;;;;28.27;17.87;;;;;;;;;;4971298;28;20402;-47
2021/08/18 04:12:22;;;;;;;34.70;17.30;;;;;;;;;;4971401;28;20388;-47
2021/08/18 04:14:48;;;;;;;30.50;17.80;;;;;;;;;;4971954;28;20408;-47
2021/08/18 04:17:14;;;;;;;30.77;17.37;;;;;;;;;;4973973;28;20778;-46
2021/08/18 04:19:42;;;;;;;29.83;17.80;;;;;;;;;;4974741;28;20435;-47
2021/08/18 04:22:08;;;;;;;34.30;18.67;;;;;;;;;;4975302;28;21064;-46
2021/08/18 04:24:35;;;;;;;30.07;19.50;;;;;;;;;;4975108;28;20515;-46
2021/08/18 04:27:01;;;;;;;34.27;18.83;;;;;;;;;;4975297;28;20426;-46
2021/08/18 04:29:28;;;;;;;36.10;19.33;;;;;;;;;;4974692;28;20436;-47
2021/08/18 04:31:57;;;;;;;30.33;17.70;;;;;;;;;;4973911;28;20908;-46
2021/08/18 04:34:23;;;;;;;32.27;19.90;;;;;;;;;;4975312;28;20411;-46
2021/08/18 04:36:49;;;;;;;36.67;18.57;;;;;;;;;;4974669;28;20826;-46
2021/08/18 04:39:15;;;;;;;33.10;19.47;;;;;;;;;;4974506;28;20478;-46
2021/08/18 04:41:41;;;;;;;42.47;19.97;;;;;;;;;;4974621;28;20414;-45
2021/08/18 04:44:08;;;;;;;31.30;18.70;;;;;;;;;;4974670;28;20456;-47
2021/08/18 04:46:34;;;;;;;39.50;20.40;;;;;;;;;;4974532;28;20409;-46
2021/08/18 04:49:00;;;;;;;34.43;20.30;;;;;;;;;;4974304;28;20420;-45
2021/08/18 04:51:26;;;;;;;33.13;20.10;;;;;;;;;;4974652;28;20409;-46
2021/08/18 04:53:52;;;;;;;32.77;20.30;;;;;;;;;;4974621;28;20412;-46
2021/08/18 04:56:18;;;;;;;30.47;20.00;;;;;;;;;;4974426;28;20780;-46
2021/08/18 04:58:44;;;;;;;41.53;20.87;;;;;;;;;;4974181;28;20435;-46
2021/08/18 05:01:11;;;;;;;42.20;21.17;;;;;;;;;;4974152;28;20413;-46
2021/08/18 05:03:37;;;;;;;34.17;20.70;;;;;;;;;;4974335;28;20470;-46
2021/08/18 05:06:03;;;;;;;30.50;18.37;;;;;;;;;;4974271;28;20761;-46
2021/08/18 05:08:29;;;;;;;37.30;18.10;;;;;;;;;;4974007;28;20479;-46
2021/08/18 05:10:55;;;;;;;29.43;17.83;;;;;;;;;;4974042;28;20460;-46
2021/08/18 05:13:22;;;;;;;35.63;18.47;;;;;;;;;;4974202;28;20397;-47
2021/08/18 05:15:48;;;;;;;25.83;17.57;;;;;;;;;;4974734;28;20393;-46
2021/08/18 05:18:14;;;;;;;28.87;17.30;;;;;;;;;;4974219;28;20410;-46
2021/08/18 05:20:40;;;;;;;21.57;14.70;;;;;;;;;;4974030;28;20412;-46
2021/08/18 05:23:06;;;;;;;27.03;17.17;;;;;;;;;;4973900;28;20484;-46
2021/08/18 05:25:32;;;;;;;24.80;14.93;;;;;;;;;;4973976;28;20429;-46
2021/08/18 05:28:03;;;;;;;20.33;13.40;;;;;;;;;;4973828;28;20402;-46
2021/08/18 05:30:29;;;;;;;26.57;12.10;;;;;;;;;;4973484;28;20585;-46
2021/08/18 05:32:55;;;;;;;15.37;11.83;;;;;;;;;;4973775;28;20916;-46
2021/08/18 05:35:21;;;;;;;12.87;10.20;;;;;;;;;;4973817;28;20955;-46
2021/08/18 05:37:47;;;;;;;12.07;9.23;;;;;;;;;;4973647;28;20988;-46
2021/08/18 05:40:15;;;;;;;11.40;8.90;;;;;;;;;;4973463;28;20399;-46
2021/08/18 05:42:42;;;;;;;13.90;8.93;;;;;;;;;;4973628;28;20409;-46
2021/08/18 05:45:08;;;;;;;14.40;7.80;;;;;;;;;;4973470;28;20950;-46
2021/08/18 05:47:34;;;;;;;9.93;8.13;;;;;;;;;;4973843;28;20734;-46
2021/08/18 05:50:00;;;;;;;11.40;7.83;;;;;;;;;;4973227;28;20407;-46
2021/08/18 05:52:26;;;;;;;7.10;6.40;;;;;;;;;;4973409;28;20429;-46
2021/08/18 05:54:52;;;;;;;8.70;6.50;;;;;;;;;;4973437;28;20421;-45
2021/08/18 05:57:18;;;;;;;7.23;6.50;;;;;;;;;;4973266;28;20556;-46
2021/08/18 05:59:44;;;;;;;10.67;6.30;;;;;;;;;;4972881;28;20436;-46
2021/08/18 06:02:10;;;;;;;7.50;6.33;;;;;;;;;;4973247;28;20440;-45
2021/08/18 06:04:36;;;;;;;8.33;6.53;;;;;;;;;;4973219;28;20467;-46
2021/08/18 06:07:02;;;;;;;10.10;5.80;;;;;;;;;;4973115;28;20401;-46
2021/08/18 06:09:29;;;;;;;9.57;6.10;;;;;;;;;;4972944;28;20846;-46
2021/08/18 06:11:55;;;;;;;7.57;6.50;;;;;;;;;;4972911;28;20428;-46
2021/08/18 06:14:21;;;;;;;7.77;6.23;;;;;;;;;;4972985;28;20408;-46
2021/08/18 06:16:47;;;;;;;5.50;5.00;;;;;;;;;;4972933;28;20408;-46
2021/08/18 06:19:13;;;;;;;7.37;5.30;;;;;;;;;;4972768;28;20425;-46
2021/08/18 06:21:39;;;;;;;6.53;5.43;;;;;;;;;;4972835;28;20530;-46
2021/08/18 06:24:51;;;;;;;7.60;5.00;;;;;;;;;;4972826;28;20452;-46
2021/08/18 06:26:51;;;;;;;5.27;4.70;;;;;;;;;;4962027;28;20492;-46
2021/08/18 06:29:20;;;;;;;5.90;5.30;;;;;;;;;;4972572;28;20840;-46
2021/08/18 06:31:48;;;;;;;6.37;5.73;;;;;;;;;;4972818;28;20401;-46
2021/08/18 06:34:14;;;;;;;5.67;5.10;;;;;;;;;;4972810;28;20406;-46
2021/08/18 06:36:41;;;;;;;5.97;4.70;;;;;;;;;;4972484;28;20409;-46
2021/08/18 06:39:08;;;;;;;8.23;7.00;;;;;;;;;;4971992;28;20444;-46
2021/08/18 06:41:34;;;;;;;11.40;5.40;;;;;;;;;;4972103;28;20417;-46
2021/08/18 06:44:00;;;;;;;6.07;5.47;;;;;;;;;;4972406;28;20526;-46
2021/08/18 06:46:26;;;;;;;7.73;6.43;;;;;;;;;;4972528;28;20406;-46
2021/08/18 06:48:52;;;;;;;7.50;6.43;;;;;;;;;;4972120;28;20400;-46
2021/08/18 06:51:19;;;;;;;8.03;7.20;;;;;;;;;;4972378;28;20376;-46
2021/08/18 06:53:45;;;;;;;9.53;7.40;;;;;;;;;;4972281;28;20408;-46
2021/08/18 06:56:11;;;;;;;9.40;7.10;;;;;;;;;;4972648;28;20415;-46
2021/08/18 06:58:37;;;;;;;10.80;8.73;;;;;;;;;;4972114;28;20987;-46
2021/08/18 07:01:06;;;;;;;10.73;8.23;;;;;;;;;;4972387;28;20495;-45
2021/08/18 07:03:33;;;;;;;8.60;7.60;;;;;;;;;;4972311;28;20455;-46
2021/08/18 07:05:59;;;;;;;10.13;7.83;;;;;;;;;;4972521;28;20417;-46
2021/08/18 07:08:25;;;;;;;9.43;8.53;;;;;;;;;;4972373;28;20852;-46
2021/08/18 07:10:53;;;;;;;10.30;7.67;;;;;;;;;;4972200;28;20479;-46
2021/08/18 07:13:20;;;;;;;11.30;7.90;;;;;;;;;;4972504;28;20460;-45
2021/08/18 07:15:46;;;;;;;9.07;8.17;;;;;;;;;;4972271;28;20405;-46
2021/08/18 07:18:13;;;;;;;8.53;7.70;;;;;;;;;;4972112;28;20405;-46
2021/08/18 07:20:39;;;;;;;8.73;7.67;;;;;;;;;;4971871;28;20480;-46
2021/08/18 07:23:06;;;;;;;8.10;7.40;;;;;;;;;;4971970;28;21049;-46
2021/08/18 07:25:34;;;;;;;10.30;8.10;;;;;;;;;;4972016;28;20486;-46
2021/08/18 07:28:00;;;;;;;13.23;8.23;;;;;;;;;;4971970;28;20496;-46
2021/08/18 07:30:26;;;;;;;12.03;7.97;;;;;;;;;;4971635;28;20514;-45
2021/08/18 07:32:51;;;;;;;9.50;7.50;;;;;;;;;;4971926;28;20413;-45
2021/08/18 07:35:17;;;;;;;9.20;7.70;;;;;;;;;;4971912;28;20408;-46
2021/08/18 07:37:43;;;;;;;11.70;8.97;;;;;;;;;;4971735;28;20412;-47
2021/08/18 07:40:10;;;;;;;7.60;6.80;;;;;;;;;;4964367;28;20958;-46
2021/08/18 07:42:36;;;;;;;9.67;7.63;;;;;;;;;;4971927;28;20944;-48
2021/08/18 07:45:03;;;;;;;9.13;8.03;;;;;;;;;;4954777;28;20968;-46
2021/08/18 07:47:29;;;;;;;9.33;7.63;;;;;;;;;;4972411;28;20494;-44
2021/08/18 07:49:55;;;;;;;8.80;7.60;;;;;;;;;;4971216;28;20427;-44
2021/08/18 07:52:21;;;;;;;10.03;7.27;;;;;;;;;;4973175;28;20408;-44
2021/08/18 07:54:48;;;;;;;11.33;7.63;;;;;;;;;;4974385;28;20742;-44
2021/08/18 07:57:15;;;;;;;9.70;8.33;;;;;;;;;;4974265;28;20946;-45
2021/08/18 07:59:41;;;;;;;8.53;7.70;;;;;;;;;;4974778;28;20508;-48
2021/08/18 08:02:07;;;;;;;13.80;8.40;;;;;;;;;;4975410;28;20373;-47
2021/08/18 08:04:34;;;;;;;9.17;8.37;;;;;;;;;;4975183;28;20485;-47
2021/08/18 08:07:00;;;;;;;10.00;9.10;;;;;;;;;;4975396;28;20382;-45
2021/08/18 08:09:26;;;;;;;11.10;9.07;;;;;;;;;;4975202;28;20397;-45
2021/08/18 08:11:52;;;;;;;10.23;9.30;;;;;;;;;;4975284;28;20908;-44
2021/08/18 08:14:18;;;;;;;10.40;9.30;;;;;;;;;;4975268;28;20390;-45
2021/08/18 08:16:45;;;;;;;13.80;12.07;;;;;;;;;;4975180;28;20439;-45
2021/08/18 08:19:12;;;;;;;14.53;11.60;;;;;;;;;;4974746;28;20439;-45
2021/08/18 08:21:38;;;;;;;16.13;13.17;;;;;;;;;;4975070;28;20408;-45
2021/08/18 08:24:04;;;;;;;16.53;14.10;;;;;;;;;;4974910;28;20469;-45
2021/08/18 08:26:30;;;;;;;20.20;12.90;;;;;;;;;;4975050;28;20425;-45
2021/08/18 08:28:56;;;;;;;18.00;16.10;;;;;;;;;;4974716;28;20423;-44
2021/08/18 08:31:22;;;;;;;24.07;16.63;;;;;;;;;;4957715;28;20761;-44
2021/08/18 08:33:48;;;;;;;19.07;16.67;;;;;;;;;;4974686;28;20385;-45
2021/08/18 08:36:14;;;;;;;20.27;17.50;;;;;;;;;;4974938;28;20412;-47
2021/08/18 08:38:41;;;;;;;21.57;17.30;;;;;;;;;;4974451;28;20833;-48
2021/08/18 08:41:09;;;;;;;20.60;18.20;;;;;;;;;;4974829;28;20758;-45
2021/08/18 08:43:35;;;;;;;23.70;17.67;;;;;;;;;;4974583;28;20915;-45
2021/08/18 08:46:00;;;;;;;19.07;16.80;;;;;;;;;;4974721;28;20990;-45
2021/08/18 08:48:27;;;;;;;17.43;15.20;;;;;;;;;;4974202;28;20401;-46
2021/08/18 08:50:53;;;;;;;19.93;17.23;;;;;;;;;;4974672;28;20419;-45
2021/08/18 08:53:19;;;;;;;20.40;15.80;;;;;;;;;;4974821;28;20401;-45
2021/08/18 08:55:46;;;;;;;17.37;15.47;;;;;;;;;;4974408;28;20425;-46
2021/08/18 08:58:12;;;;;;;18.00;14.33;;;;;;;;;;4974419;28;20440;-44
2021/08/18 09:00:38;;;;;;;19.73;15.10;;;;;;;;;;4974137;28;20830;-45
2021/08/18 09:03:12;;;;;;;17.23;15.37;;;;;;;;;;4973370;28;20395;-45
2021/08/18 09:05:39;;;;;;;23.30;14.33;;;;;;;;;;4974596;28;20875;-45
2021/08/18 09:08:09;;;;;;;14.03;12.60;;;;;;;;;;4974361;28;20474;-52
2021/08/18 09:10:36;;;;;;;13.50;10.40;;;;;;;;;;4974036;28;20486;-45
2021/08/18 09:13:12;;;;;;;11.50;10.40;;;;;;;;;;4974120;28;20458;-45
2021/08/18 09:15:39;;;;;;;11.00;9.50;;;;;;;;;;4974087;28;20411;-45
2021/08/18 09:18:06;;;;;;;10.90;9.80;;;;;;;;;;4974330;28;20779;-46
2021/08/18 09:20:34;;;;;;;10.33;9.33;;;;;;;;;;4973826;28;20560;-48
2021/08/18 09:23:04;;;;;;;9.67;8.70;;;;;;;;;;4974540;28;20479;-45
2021/08/18 09:25:39;;;;;;;10.67;8.60;;;;;;;;;;4974007;28;20865;-45
2021/08/18 09:28:05;;;;;;;9.27;8.30;;;;;;;;;;4973936;28;20454;-47
2021/08/18 09:30:32;;;;;;;8.43;7.70;;;;;;;;;;4974054;28;20416;-46
2021/08/18 09:32:59;;;;;;;8.90;7.83;;;;;;;;;;4974182;28;20408;-45
2021/08/18 09:35:26;;;;;;;8.30;7.60;;;;;;;;;;4974182;28;20409;-45
2021/08/18 09:37:54;;;;;;;7.77;7.07;;;;;;;;;;4973088;28;20399;-47
2021/08/18 09:40:25;;;;;;;7.93;7.23;;;;;;;;;;4973323;28;20484;-45
2021/08/18 09:42:53;;;;;;;10.40;7.13;;;;;;;;;;4973749;28;20417;-46
2021/08/18 09:45:19;;;;;;;9.20;7.17;;;;;;;;;;4973449;28;20463;-47
2021/08/18 09:47:52;;;;;;;8.87;7.80;;;;;;;;;;4973587;28;20894;-47
2021/08/18 09:50:18;;;;;;;8.43;7.57;;;;;;;;;;4973151;28;20848;-45
2021/08/18 09:52:44;;;;;;;8.77;8.03;;;;;;;;;;4973444;28;20797;-45
2021/08/18 09:55:11;;;;;;;9.70;8.20;;;;;;;;;;4973246;28;20462;-45
2021/08/18 09:57:38;;;;;;;8.57;7.30;;;;;;;;;;4973359;28;20897;-45
2021/08/18 10:00:04;;;;;;;10.30;9.17;;;;;;;;;;4972900;28;20408;-47
2021/08/18 10:02:30;;;;;;;11.27;9.90;;;;;;;;;;4973165;28;20416;-46
2021/08/18 10:04:59;;;;;;;16.43;10.43;;;;;;;;;;4973119;28;20420;-46
2021/08/18 10:07:26;;;;;;;11.60;10.40;;;;;;;;;;4973007;28;20446;-44
2021/08/18 10:09:54;;;;;;;11.77;10.27;;;;;;;;;;4972801;28;20913;-46
2021/08/18 10:12:19;;;;;;;17.40;12.10;;;;;;;;;;4972627;28;20440;-45
2021/08/18 10:14:45;;;;;;;13.73;11.73;;;;;;;;;;4972853;28;20387;-45
2021/08/18 10:17:11;;;;;;;14.33;12.80;;;;;;;;;;4972877;28;20386;-45
2021/08/18 10:19:38;;;;;;;14.80;12.23;;;;;;;;;;4972619;28;20987;-45
2021/08/18 10:22:04;;;;;;;15.23;13.73;;;;;;;;;;4972596;28;20391;-45
2021/08/18 10:24:36;;;;;;;16.13;14.37;;;;;;;;;;4972729;28;20503;-44
2021/08/18 10:27:05;;;;;;;15.30;13.50;;;;;;;;;;4972553;28;20846;-46
2021/08/18 10:29:35;;;;;;;15.60;14.00;;;;;;;;;;4972484;28;20434;-45
2021/08/18 10:32:05;;;;;;;16.17;14.57;;;;;;;;;;4972638;28;20912;-45
2021/08/18 10:34:34;;;;;;;19.37;17.33;;;;;;;;;;4972581;28;20459;-47
2021/08/18 10:37:01;;;;;;;23.73;18.00;;;;;;;;;;4972800;28;20778;-45
2021/08/18 10:39:29;;;;;;;25.83;19.60;;;;;;;;;;4972400;28;20546;-48
2021/08/18 10:42:11;;;;;;;21.10;18.83;;;;;;;;;;4972553;28;20412;-44
2021/08/18 10:44:40;;;;;;;21.93;18.90;;;;;;;;;;4972481;28;20442;-44
2021/08/18 10:47:14;;;;;;;22.93;19.00;;;;;;;;;;4972453;28;20420;-45
2021/08/18 10:49:41;;;;;;;20.27;18.07;;;;;;;;;;4972190;28;20396;-44
2021/08/18 10:52:09;;;;;;;18.20;16.40;;;;;;;;;;4972245;28;20389;-44
2021/08/18 10:54:43;;;;;;;20.70;18.13;;;;;;;;;;4972519;28;20385;-45
2021/08/18 10:57:28;;;;;;;17.43;15.73;;;;;;;;;;4972366;28;20878;-45
2021/08/18 10:59:55;;;;;;;18.37;16.33;;;;;;;;;;4972122;28;20428;-44
2021/08/18 11:02:39;;;;;;;18.93;15.93;;;;;;;;;;4972353;28;20401;-45
2021/08/18 11:05:12;;;;;;;15.00;13.60;;;;;;;;;;4972220;28;20471;-45
2021/08/18 11:07:57;;;;;;;15.83;13.60;;;;;;;;;;4972717;28;20385;-45
2021/08/18 11:10:23;;;;;;;15.67;14.03;;;;;;;;;;4971894;28;20832;-45
2021/08/18 11:12:49;;;;;;;14.77;13.27;;;;;;;;;;4971917;28;20450;-46
2021/08/18 11:15:21;;;;;;;14.40;13.00;;;;;;;;;;4972633;28;20383;-45
2021/08/18 11:17:48;;;;;;;13.33;12.03;;;;;;;;;;4972101;28;20827;-46
2021/08/18 11:20:21;;;;;;;12.67;11.37;;;;;;;;;;4972053;28;20429;-46
2021/08/18 11:22:53;;;;;;;11.90;10.80;;;;;;;;;;4972127;28;21033;-46
2021/08/18 11:25:20;;;;;;;12.07;10.60;;;;;;;;;;4971535;28;20890;-45
2021/08/18 11:27:50;;;;;;;11.70;10.50;;;;;;;;;;4971578;28;20398;-47
2021/08/18 11:30:16;;;;;;;11.43;10.37;;;;;;;;;;4971556;28;20511;-46
2021/08/18 11:32:42;;;;;;;9.60;8.80;;;;;;;;;;4971911;28;20878;-46
2021/08/18 11:35:08;;;;;;;9.27;8.47;;;;;;;;;;4972089;28;20457;-45
2021/08/18 11:37:34;;;;;;;9.00;8.20;;;;;;;;;;4971791;28;20387;-46
2021/08/18 11:40:02;;;;;;;10.30;8.50;;;;;;;;;;4971472;28;20408;-46
2021/08/18 11:42:28;;;;;;;8.97;8.13;;;;;;;;;;4971972;28;20385;-46
2021/08/18 11:45:02;;;;;;;11.07;6.83;;;;;;;;;;4971678;28;20832;-46
2021/08/18 11:47:33;;;;;;;7.87;7.07;;;;;;;;;;4971661;28;21035;-46
2021/08/18 11:50:02;;;;;;;7.70;7.10;;;;;;;;;;4971204;28;20976;-46
2021/08/18 11:52:29;;;;;;;8.40;7.67;;;;;;;;;;4971821;28;20403;-46
2021/08/18 11:54:56;;;;;;;6.77;6.27;;;;;;;;;;4971755;28;20410;-46
2021/08/18 11:57:23;;;;;;;8.73;6.13;;;;;;;;;;4971545;28;20415;-46
2021/08/18 11:59:52;;;;;;;6.90;6.40;;;;;;;;;;4971156;28;20472;-45
2021/08/18 12:02:20;;;;;;;7.57;6.80;;;;;;;;;;4971564;28;20862;-46
2021/08/18 12:04:47;;;;;;;7.53;6.90;;;;;;;;;;4971652;28;20466;-46
2021/08/18 12:07:15;;;;;;;7.80;7.10;;;;;;;;;;4971585;28;20413;-46
2021/08/18 12:09:46;;;;;;;7.60;7.00;;;;;;;;;;4971560;28;20429;-46
2021/08/18 12:12:13;;;;;;;7.33;6.63;;;;;;;;;;4971401;28;20447;-46
2021/08/18 12:14:40;;;;;;;7.07;6.17;;;;;;;;;;4971421;28;20403;-46
2021/08/18 12:17:07;;;;;;;11.10;7.20;;;;;;;;;;4971564;28;20384;-46
2021/08/18 12:19:38;;;;;;;7.27;6.67;;;;;;;;;;4971247;28;20498;-46
2021/08/18 12:22:10;;;;;;;7.90;7.20;;;;;;;;;;4971423;28;20418;-46
2021/08/18 12:24:37;;;;;;;7.20;6.60;;;;;;;;;;4971414;28;20466;-46
2021/08/18 12:27:06;;;;;;;7.50;6.50;;;;;;;;;;4971270;28;20467;-46
2021/08/18 12:29:33;;;;;;;6.60;6.10;;;;;;;;;;4971246;28;20488;-46
2021/08/18 12:32:10;;;;;;;6.47;5.97;;;;;;;;;;4971478;28;20412;-46
2021/08/18 12:34:39;;;;;;;8.90;5.53;;;;;;;;;;4971441;28;20407;-46
2021/08/18 12:37:17;;;;;;;5.90;5.40;;;;;;;;;;4971374;28;20501;-46
2021/08/18 12:39:47;;;;;;;6.00;5.60;;;;;;;;;;4973959;28;20442;-46
2021/08/18 12:42:33;;;;;;;5.80;5.40;;;;;;;;;;4974891;28;20509;-46
2021/08/18 12:44:59;;;;;;;5.53;5.13;;;;;;;;;;4964492;28;20510;-46
2021/08/18 12:47:32;;;;;;;5.67;5.17;;;;;;;;;;4974774;28;20410;-46
2021/08/18 12:49:59;;;;;;;4.63;4.20;;;;;;;;;;4974195;28;20429;-46
2021/08/18 12:52:27;;;;;;;6.07;4.60;;;;;;;;;;4973291;28;20403;-46
2021/08/18 12:54:53;;;;;;;5.27;4.47;;;;;;;;;;4974546;28;20795;-45
2021/08/18 12:57:21;;;;;;;4.13;3.83;;;;;;;;;;4974569;28;20490;-46
2021/08/18 12:59:47;;;;;;;3.70;3.40;;;;;;;;;;4974079;28;20842;-46
2021/08/18 13:02:13;;;;;;;4.17;3.77;;;;;;;;;;4974354;28;20506;-46
2021/08/18 13:04:39;;;;;;;4.17;3.87;;;;;;;;;;4974194;28;20574;-46
2021/08/18 13:07:05;;;;;;;3.90;3.60;;;;;;;;;;4974347;28;20730;-46
2021/08/18 13:09:32;;;;;;;3.30;3.10;;;;;;;;;;4974032;28;21038;-46
2021/08/18 13:11:59;;;;;;;5.53;3.83;;;;;;;;;;4974237;28;20757;-46
2021/08/18 13:14:26;;;;;;;4.10;3.80;;;;;;;;;;4974517;28;20404;-46
2021/08/18 13:16:52;;;;;;;3.80;3.43;;;;;;;;;;4974089;28;20411;-45
2021/08/18 13:19:18;;;;;;;4.20;3.80;;;;;;;;;;4973766;28;20468;-46
2021/08/18 13:21:45;;;;;;;4.93;4.10;;;;;;;;;;4974016;28;20502;-46
2021/08/18 13:24:11;;;;;;;4.97;4.03;;;;;;;;;;4973949;28;20459;-46
2021/08/18 13:26:41;;;;;;;4.40;4.00;;;;;;;;;;4973869;28;20931;-46
2021/08/18 13:29:08;;;;;;;6.20;4.30;;;;;;;;;;4973677;28;20523;-46
2021/08/18 13:31:35;;;;;;;5.50;5.00;;;;;;;;;;4973779;28;20415;-46
2021/08/18 13:34:06;;;;;;;5.67;5.17;;;;;;;;;;4968080;28;20432;-46
2021/08/18 13:36:33;;;;;;;5.53;5.03;;;;;;;;;;4974224;28;20440;-46
2021/08/18 13:39:01;;;;;;;6.10;5.40;;;;;;;;;;4940842;28;20861;-46
2021/08/18 13:41:28;;;;;;;5.27;4.77;;;;;;;;;;4956764;28;20420;-46
2021/08/18 13:43:55;;;;;;;6.03;5.10;;;;;;;;;;4974250;28;20460;-46
2021/08/18 13:46:21;;;;;;;6.00;4.70;;;;;;;;;;4956476;28;20416;-46
2021/08/18 13:48:49;;;;;;;5.43;4.93;;;;;;;;;;4973720;28;20818;-46
2021/08/18 13:51:16;;;;;;;6.33;5.60;;;;;;;;;;4956563;28;20420;-46
2021/08/18 13:53:43;;;;;;;6.07;5.43;;;;;;;;;;4974285;28;20413;-46
2021/08/18 13:56:11;;;;;;;6.27;5.77;;;;;;;;;;4972740;28;20791;-46
2021/08/18 13:58:38;;;;;;;6.30;5.60;;;;;;;;;;4974020;28;20452;-45
2021/08/18 14:01:05;;;;;;;5.90;5.40;;;;;;;;;;4973785;28;20404;-45
2021/08/18 14:03:32;;;;;;;6.70;5.30;;;;;;;;;;4956082;28;20451;-45
2021/08/18 14:05:59;;;;;;;6.03;5.63;;;;;;;;;;4955513;28;20463;-45
2021/08/18 14:08:25;;;;;;;6.90;6.40;;;;;;;;;;4972937;28;20408;-45
2021/08/18 14:10:51;;;;;;;5.80;5.40;;;;;;;;;;4972867;28;20923;-46
2021/08/18 14:13:18;;;;;;;5.30;4.90;;;;;;;;;;4972796;28;20411;-46
2021/08/18 14:15:44;;;;;;;5.60;5.10;;;;;;;;;;4972900;28;20405;-45
2021/08/18 14:18:10;;;;;;;5.83;5.33;;;;;;;;;;4972947;28;20900;-46
2021/08/18 14:20:37;;;;;;;5.87;4.93;;;;;;;;;;4972659;28;20428;-46
2021/08/18 14:23:03;;;;;;;7.23;4.80;;;;;;;;;;4972895;28;20412;-45
2021/08/18 14:25:30;;;;;;;9.70;6.33;;;;;;;;;;4972657;28;20467;-46